createdAt,value
2023-09-02T00:01:14.372Z,12.68
2023-09-02T00:07:03.307Z,13.85
2023-09-02T00:09:32.011Z,9.65
2023-09-02T00:14:43.287Z,13.48
2023-09-02T00:17:11.877Z,10.32
2023-09-02T00:20:16.041Z,14.57
2023-09-02T00:22:42.996Z,14.23
2023-09-02T00:28:31.990Z,13.18
2023-09-02T00:30:58.898Z,13.65
2023-09-02T00:37:07.299Z,11.98
2023-09-02T00:39:53.910Z,15.40
2023-09-02T00:42:41.057Z,12.98
2023-09-02T00:45:45.496Z,13.88
2023-09-02T00:48:31.292Z,18.45
2023-09-02T00:54:20.616Z,15.00
2023-09-02T00:57:26.307Z,14.95
2023-09-02T01:02:58.144Z,18.58
2023-09-02T01:06:22.291Z,16.40
2023-09-02T01:08:49.610Z,14.18
2023-09-02T01:11:54.303Z,14.88
2023-09-02T01:14:42.037Z,13.52
2023-09-02T01:17:27.606Z,13.60
2023-09-02T01:20:17.063Z,13.63
2023-09-02T01:29:20.070Z,13.07
2023-09-02T01:32:07.540Z,16.02
2023-09-02T01:41:04.086Z,16.05
2023-09-02T01:50:55.446Z,11.82
2023-09-02T01:53:22.627Z,14.13
2023-09-02T01:58:54.889Z,15.45
2023-09-02T02:01:41.140Z,14.68
2023-09-02T02:05:04.568Z,12.15
2023-09-02T02:11:01.346Z,12.32
2023-09-02T02:13:29.063Z,14.05
2023-09-02T02:16:15.708Z,15.85
2023-09-02T02:19:01.624Z,16.42
2023-09-02T02:22:25.366Z,15.48
2023-09-02T02:25:49.449Z,14.23
2023-09-02T02:32:16.463Z,13.73
2023-09-02T02:35:41.304Z,12.93
2023-09-02T02:38:26.975Z,19.95
2023-09-02T02:41:12.946Z,14.80
2023-09-02T02:44:17.399Z,19.00
2023-09-02T02:47:21.885Z,21.13
2023-09-02T02:50:07.915Z,18.77
2023-09-02T02:52:39.246Z,16.10
2023-09-02T02:55:07.560Z,15.65
2023-09-02T02:57:52.966Z,18.88
2023-09-02T03:00:40.347Z,15.95
2023-09-02T03:03:26.195Z,14.48
2023-09-02T03:06:31.009Z,14.50
2023-09-02T03:09:17.718Z,16.02
2023-09-02T03:11:44.730Z,17.45
2023-09-02T03:14:30.407Z,19.52
2023-09-02T03:20:19.721Z,14.88
2023-09-02T03:23:24.475Z,15.68
2023-09-02T03:26:10.103Z,17.48
2023-09-02T03:29:14.285Z,13.57
2023-09-02T03:32:20.480Z,17.95
2023-09-02T03:37:53.879Z,15.57
2023-09-02T03:46:28.616Z,21.30
2023-09-02T03:49:16.760Z,17.95
2023-09-02T03:52:02.633Z,14.93
2023-09-02T03:57:53.493Z,13.18
2023-09-02T04:00:39.099Z,16.10
2023-09-02T04:03:45.358Z,15.93
2023-09-02T04:06:33.513Z,12.68
2023-09-02T04:12:22.017Z,13.50
2023-09-02T04:15:26.475Z,12.63
2023-09-02T04:27:46.871Z,10.85
2023-09-02T04:30:16.232Z,10.82
2023-09-02T04:33:01.629Z,9.88
2023-09-02T04:35:47.052Z,9.30
2023-09-02T04:38:52.341Z,19.98
2023-09-02T04:44:04.544Z,10.00
2023-09-02T04:46:32.359Z,10.23
2023-09-02T04:57:50.647Z,8.63
2023-09-02T05:06:45.788Z,7.18
2023-09-02T05:09:50.470Z,9.35
2023-09-02T05:12:56.473Z,8.27
2023-09-02T05:19:05.596Z,9.05
2023-09-02T05:21:51.573Z,9.82
2023-09-02T05:24:55.701Z,7.03
2023-09-02T05:27:42.258Z,7.32
2023-09-02T05:31:05.875Z,10.75
2023-09-02T05:34:10.611Z,8.60
2023-09-02T05:42:46.031Z,12.07
2023-09-02T05:51:21.330Z,10.40
2023-09-02T05:56:32.931Z,10.02
2023-09-02T06:02:03.885Z,8.63
2023-09-02T06:10:19.022Z,8.70
2023-09-02T06:15:49.013Z,10.43
2023-09-02T06:22:34.381Z,11.77
2023-09-02T06:25:39.138Z,12.20
2023-09-02T06:28:26.275Z,13.38
2023-09-02T06:37:38.342Z,13.32
2023-09-02T06:40:06.726Z,12.35
2023-09-02T06:51:25.929Z,14.88
2023-09-02T06:57:33.652Z,14.50
2023-09-02T07:00:01.307Z,13.70
2023-09-02T07:02:46.989Z,15.20
2023-09-02T07:05:32.843Z,15.98
2023-09-02T07:11:41.466Z,14.43
2023-09-02T07:17:50.243Z,19.50
2023-09-02T07:20:36.642Z,20.08
2023-09-02T07:23:40.584Z,17.35
2023-09-02T07:26:28.556Z,15.68
2023-09-02T07:29:16.847Z,19.10
2023-09-02T07:32:21.606Z,18.38
2023-09-02T07:35:07.185Z,17.45
2023-09-02T07:44:00.377Z,16.02
2023-09-02T07:46:46.452Z,18.17
2023-09-02T07:52:36.631Z,16.02
2023-09-02T07:55:24.601Z,14.93
2023-09-02T07:58:29.301Z,15.80
2023-09-02T08:12:18.795Z,15.93
2023-09-02T08:15:05.045Z,14.52
2023-09-02T08:17:51.439Z,15.82
2023-09-02T08:20:37.011Z,17.50
2023-09-02T08:23:22.677Z,17.33
2023-09-02T08:25:49.524Z,15.95
2023-09-02T08:28:34.995Z,18.10
2023-09-02T08:31:01.866Z,20.85
2023-09-02T08:34:07.481Z,17.08
2023-09-02T08:36:52.945Z,17.13
2023-09-02T08:39:19.863Z,15.00
2023-09-02T08:45:14.090Z,15.35
2023-09-02T08:51:05.570Z,19.27
2023-09-02T08:54:28.781Z,18.55
2023-09-02T08:57:18.569Z,14.88
2023-09-02T09:00:04.037Z,13.55
2023-09-02T09:02:50.485Z,18.60
2023-09-02T09:08:59.473Z,21.83
2023-09-02T09:11:45.177Z,19.58
2023-09-02T09:14:25.916Z,15.07
2023-09-02T09:17:13.483Z,17.25
2023-09-02T09:20:03.213Z,23.10
2023-09-02T09:22:38.542Z,17.50
2023-09-02T09:28:13.355Z,18.25
2023-09-02T09:30:41.165Z,17.20
2023-09-02T09:33:47.316Z,19.30
2023-09-02T09:45:56.258Z,15.77
2023-09-02T09:48:23.339Z,16.98
2023-09-02T09:51:22.942Z,19.77
2023-09-02T09:57:31.666Z,19.55
2023-09-02T09:59:59.361Z,16.92
2023-09-02T10:02:50.639Z,20.05
2023-09-02T10:05:37.744Z,23.73
2023-09-02T10:08:41.605Z,16.02
2023-09-02T10:11:22.882Z,18.98
2023-09-02T10:17:54.125Z,15.95
2023-09-02T10:20:31.527Z,15.30
2023-09-02T10:23:17.601Z,16.83
2023-09-02T10:31:34.374Z,16.77
2023-09-02T10:37:34.331Z,19.17
2023-09-02T10:40:24.459Z,14.82
2023-09-02T10:43:10.887Z,14.32
2023-09-02T10:45:38.824Z,11.65
2023-09-02T10:51:28.184Z,11.93
2023-09-02T10:54:51.496Z,8.68
2023-09-02T10:57:50.613Z,11.88
2023-09-02T11:00:47.079Z,13.23
2023-09-02T11:03:45.281Z,8.65
2023-09-02T11:06:31.160Z,6.53
2023-09-02T11:09:16.620Z,8.00
2023-09-02T11:12:11.686Z,9.63
2023-09-02T11:15:28.401Z,8.50
2023-09-02T11:18:30.883Z,8.50
2023-09-02T11:23:43.026Z,10.30
2023-09-02T11:26:47.281Z,12.27
2023-09-02T11:30:10.679Z,9.43
2023-09-02T11:32:46.985Z,9.05
2023-09-02T11:35:55.702Z,14.90
2023-09-02T11:39:00.216Z,12.18
2023-09-02T11:44:33.368Z,12.23
2023-09-02T11:47:01.860Z,13.25
2023-09-02T11:49:50.353Z,13.02
2023-09-02T11:52:22.859Z,10.70
2023-09-02T11:55:17.430Z,12.25
2023-09-02T11:57:46.111Z,11.80
2023-09-02T12:03:29.480Z,7.32
2023-09-02T12:06:34.154Z,9.80
2023-09-02T12:12:26.363Z,10.63
2023-09-02T12:15:34.640Z,12.20
2023-09-02T12:18:20.545Z,11.48
2023-09-02T12:21:07.016Z,12.35
2023-09-02T12:26:57.414Z,11.45
2023-09-02T12:29:25.923Z,10.90
2023-09-02T12:31:57.398Z,9.90
2023-09-02T12:34:26.145Z,8.70
2023-09-02T12:37:36.726Z,7.55
2023-09-02T12:40:48.053Z,10.73
2023-09-02T12:44:14.377Z,7.55
2023-09-02T12:47:00.022Z,8.45
2023-09-02T12:52:59.910Z,11.05
2023-09-02T12:55:46.404Z,7.55
2023-09-02T12:58:14.933Z,8.25
2023-09-02T13:01:05.342Z,5.20
2023-09-02T13:03:50.945Z,11.55
2023-09-02T13:06:18.413Z,7.93
2023-09-02T13:09:03.929Z,7.55
2023-09-02T13:12:08.425Z,7.32
2023-09-02T13:24:05.030Z,8.50
2023-09-02T13:27:10.901Z,7.88
2023-09-02T13:36:21.949Z,8.60
2023-09-02T13:38:50.243Z,8.82
2023-09-02T13:44:05.294Z,5.13
2023-09-02T13:46:32.593Z,6.03
2023-09-02T13:52:25.094Z,11.40
2023-09-02T13:54:55.915Z,9.75
2023-09-02T13:57:45.199Z,7.50
2023-09-02T14:03:57.602Z,7.00
2023-09-02T14:07:02.126Z,9.27
2023-09-02T14:09:47.756Z,4.28
2023-09-02T14:12:22.291Z,8.27
2023-09-02T14:14:50.438Z,9.65
2023-09-02T14:17:55.600Z,10.73
2023-09-02T14:21:00.164Z,8.80
2023-09-02T14:23:45.953Z,6.35
2023-09-02T14:26:32.148Z,10.27
2023-09-02T14:29:36.274Z,5.15
2023-09-02T14:35:25.620Z,10.10
2023-09-02T14:37:53.310Z,8.57
2023-09-02T14:40:57.951Z,12.40
2023-09-02T14:43:25.210Z,7.43
2023-09-02T14:45:52.233Z,8.15
2023-09-02T14:48:39.482Z,9.65
2023-09-02T14:51:06.586Z,6.68
2023-09-02T14:53:52.465Z,5.55
2023-09-02T14:57:05.085Z,9.10
2023-09-02T14:59:50.942Z,8.75
2023-09-02T15:02:30.862Z,5.25
2023-09-02T15:05:23.205Z,6.88
2023-09-02T15:07:57.730Z,8.27
2023-09-02T15:10:27.905Z,9.75
2023-09-02T15:12:56.222Z,7.88
2023-09-02T15:15:26.243Z,5.85
2023-09-02T15:17:53.900Z,6.93
2023-09-02T15:20:44.148Z,4.78
2023-09-02T15:23:11.459Z,7.38
2023-09-02T15:26:18.586Z,6.30
2023-09-02T15:29:23.776Z,6.75
2023-09-02T15:34:58.372Z,6.68
2023-09-02T15:40:49.324Z,8.07
2023-09-02T15:47:00.031Z,7.18
2023-09-02T15:50:03.900Z,9.40
2023-09-02T15:58:38.024Z,9.02
2023-09-02T16:04:27.253Z,9.40
2023-09-02T16:07:13.086Z,10.60
2023-09-02T16:13:40.943Z,8.30
2023-09-02T16:23:11.550Z,9.23
2023-09-02T16:26:38.414Z,8.30
2023-09-02T16:29:43.363Z,10.93
2023-09-02T16:35:36.548Z,11.90
2023-09-02T16:38:41.369Z,8.75
2023-09-02T16:44:04.628Z,18.80
2023-09-02T16:47:12.737Z,6.45
2023-09-02T16:50:17.357Z,8.20
2023-09-02T16:53:40.979Z,9.90
2023-09-02T16:56:45.504Z,7.35
2023-09-02T16:59:32.594Z,6.95
2023-09-02T17:02:39.818Z,4.25
2023-09-02T17:05:27.540Z,6.35
2023-09-02T17:11:55.166Z,7.78
2023-09-02T17:14:40.567Z,7.20
2023-09-02T17:17:09.185Z,8.23
2023-09-02T17:23:29.116Z,7.00
2023-09-02T17:26:15.113Z,8.70
2023-09-02T17:28:42.300Z,8.80
2023-09-02T17:31:27.793Z,5.43
2023-09-02T17:33:54.699Z,10.43
2023-09-02T17:37:00.316Z,5.45
2023-09-02T17:46:13.667Z,10.38
2023-09-02T17:49:18.846Z,5.70
2023-09-02T17:54:31.729Z,7.55
2023-09-02T17:56:58.750Z,10.85
2023-09-02T18:02:29.035Z,11.15
2023-09-02T18:05:33.731Z,10.20
2023-09-02T18:08:01.591Z,8.77
2023-09-02T18:10:47.460Z,9.25
2023-09-02T18:15:59.107Z,9.32
2023-09-02T18:21:50.397Z,10.85
2023-09-02T18:24:18.254Z,6.55
2023-09-02T18:26:48.327Z,8.70
2023-09-02T18:29:52.816Z,6.25
2023-09-02T18:32:38.778Z,10.73
2023-09-02T18:35:24.209Z,7.72
2023-09-02T18:41:51.586Z,7.32
2023-09-02T18:44:38.053Z,8.45
2023-09-02T18:47:24.652Z,7.00
2023-09-02T18:53:14.095Z,8.00
2023-09-02T18:55:41.250Z,7.10
2023-09-02T18:59:04.272Z,8.48
2023-09-02T19:10:42.887Z,13.77
2023-09-02T19:13:29.595Z,10.40
2023-09-02T19:16:34.032Z,10.85
2023-09-02T19:19:38.366Z,9.93
2023-09-02T19:22:42.214Z,13.88
2023-09-02T19:34:24.044Z,12.23
2023-09-02T19:37:48.606Z,8.63
2023-09-02T19:40:36.943Z,12.05
2023-09-02T19:43:41.485Z,10.35
2023-09-02T19:46:08.629Z,12.70
2023-09-02T19:51:40.597Z,16.25
2023-09-02T19:56:54.541Z,14.93
2023-09-02T20:09:12.589Z,9.15
2023-09-02T20:11:58.348Z,15.85
2023-09-02T20:14:43.928Z,14.23
2023-09-02T20:17:10.911Z,11.63
2023-09-02T20:20:16.329Z,10.57
2023-09-02T20:23:01.775Z,13.05
2023-09-02T20:25:52.665Z,13.38
2023-09-02T20:29:16.047Z,14.23
2023-09-02T20:35:04.731Z,14.88
2023-09-02T20:40:54.011Z,17.50
2023-09-02T20:43:39.923Z,14.63
2023-09-02T20:46:44.173Z,12.35
2023-09-02T20:49:11.299Z,11.90
2023-09-02T20:51:38.251Z,14.00
2023-09-02T20:54:42.140Z,11.73
2023-09-02T20:57:27.655Z,10.00
2023-09-02T21:03:55.021Z,13.77
2023-09-02T21:06:59.416Z,12.75
2023-09-02T21:12:13.521Z,12.57
2023-09-02T21:14:41.766Z,13.13
2023-09-02T21:17:10.651Z,15.32
2023-09-02T21:23:07.620Z,11.05
2023-09-02T21:25:53.144Z,15.05
2023-09-02T21:28:25.653Z,16.23
2023-09-02T21:31:12.943Z,15.73
2023-09-02T21:34:36.026Z,14.98
2023-09-02T21:37:02.997Z,15.65
2023-09-02T21:40:07.106Z,14.95
2023-09-02T21:46:18.830Z,15.80
2023-09-02T21:49:22.900Z,19.58
2023-09-02T21:51:50.654Z,17.48
2023-09-02T21:54:17.578Z,16.42
2023-09-02T21:57:03.628Z,16.63
2023-09-02T22:00:07.989Z,17.65
2023-09-02T22:02:54.926Z,17.50
2023-09-02T22:05:41.738Z,23.58
2023-09-02T22:11:30.746Z,18.00
2023-09-02T22:14:16.470Z,20.00
2023-09-02T22:17:02.637Z,22.05
2023-09-02T22:19:31.099Z,19.77
2023-09-02T22:22:16.518Z,22.70
2023-09-02T22:27:28.162Z,23.92
2023-09-02T22:30:14.244Z,21.02
2023-09-02T22:32:41.225Z,22.40
2023-09-02T22:35:08.304Z,22.00
2023-09-02T22:38:12.688Z,23.38
2023-09-02T22:41:16.801Z,29.40
2023-09-02T22:46:49.623Z,28.15
2023-09-02T22:49:53.484Z,28.98
2023-09-02T22:52:20.526Z,24.00
2023-09-02T22:55:25.185Z,23.98
2023-09-02T22:58:13.338Z,23.58
2023-09-02T23:09:36.189Z,22.13
2023-09-02T23:12:23.653Z,21.60
2023-09-02T23:15:09.691Z,20.88
2023-09-02T23:17:38.404Z,26.42
2023-09-02T23:20:43.273Z,28.20
2023-09-02T23:26:37.470Z,25.75
2023-09-02T23:32:25.974Z,23.80
2023-09-02T23:35:11.317Z,21.60
2023-09-02T23:44:24.712Z,23.65
2023-09-02T23:46:52.825Z,23.77
2023-09-02T23:49:19.777Z,21.85
2023-09-02T23:52:05.701Z,18.63
2023-09-02T23:57:56.484Z,20.23
